sensor_id;sensor_type;location;lat;lon;timestamp;P1;durP1;ratioP1;P2;durP2;ratioP2
4980;SDS011;2507;50.392;7.482;2022-12-18T00:01:30;47.30;;;22.23;;
4980;SDS011;2507;50.392;7.482;2022-12-18T00:03:57;36.93;;;20.83;;
4980;SDS011;2507;50.392;7.482;2022-12-18T00:06:24;34.20;;;19.30;;
4980;SDS011;2507;50.392;7.482;2022-12-18T00:08:51;41.50;;;20.97;;
4980;SDS011;2507;50.392;7.482;2022-12-18T00:11:18;33.80;;;19.40;;
4980;SDS011;2507;50.392;7.482;2022-12-18T00:13:45;36.47;;;19.07;;
4980;SDS011;2507;50.392;7.482;2022-12-18T00:16:11;32.10;;;19.70;;
4980;SDS011;2507;50.392;7.482;2022-12-18T00:18:38;33.63;;;19.03;;
4980;SDS011;2507;50.392;7.482;2022-12-18T00:21:06;38.20;;;21.67;;
4980;SDS011;2507;50.392;7.482;2022-12-18T00:23:33;39.17;;;22.77;;
4980;SDS011;2507;50.392;7.482;2022-12-18T00:25:59;41.00;;;21.17;;
4980;SDS011;2507;50.392;7.482;2022-12-18T00:28:26;37.03;;;20.50;;
4980;SDS011;2507;50.392;7.482;2022-12-18T00:30:58;42.37;;;21.07;;
4980;SDS011;2507;50.392;7.482;2022-12-18T00:33:30;41.10;;;21.43;;
4980;SDS011;2507;50.392;7.482;2022-12-18T00:36:00;51.30;;;20.97;;
4980;SDS011;2507;50.392;7.482;2022-12-18T00:38:29;39.30;;;18.80;;
4980;SDS011;2507;50.392;7.482;2022-12-18T00:40:55;43.47;;;24.87;;
4980;SDS011;2507;50.392;7.482;2022-12-18T00:43:20;41.47;;;23.10;;
4980;SDS011;2507;50.392;7.482;2022-12-18T00:45:45;38.70;;;21.10;;
4980;SDS011;2507;50.392;7.482;2022-12-18T00:48:10;43.37;;;22.20;;
4980;SDS011;2507;50.392;7.482;2022-12-18T00:50:36;41.47;;;20.97;;
4980;SDS011;2507;50.392;7.482;2022-12-18T00:53:01;37.50;;;20.60;;
4980;SDS011;2507;50.392;7.482;2022-12-18T00:55:26;39.10;;;20.73;;
4980;SDS011;2507;50.392;7.482;2022-12-18T00:57:52;34.10;;;19.37;;
4980;SDS011;2507;50.392;7.482;2022-12-18T01:00:17;41.60;;;21.20;;
4980;SDS011;2507;50.392;7.482;2022-12-18T01:02:43;34.27;;;20.50;;
4980;SDS011;2507;50.392;7.482;2022-12-18T01:05:10;37.57;;;21.37;;
4980;SDS011;2507;50.392;7.482;2022-12-18T01:07:37;39.27;;;21.90;;
4980;SDS011;2507;50.392;7.482;2022-12-18T01:10:03;38.93;;;20.80;;
4980;SDS011;2507;50.392;7.482;2022-12-18T01:12:29;32.67;;;19.20;;
4980;SDS011;2507;50.392;7.482;2022-12-18T01:14:54;39.23;;;21.77;;
4980;SDS011;2507;50.392;7.482;2022-12-18T01:17:21;34.13;;;20.23;;
4980;SDS011;2507;50.392;7.482;2022-12-18T01:19:46;43.70;;;21.40;;
4980;SDS011;2507;50.392;7.482;2022-12-18T01:22:12;38.17;;;20.20;;
4980;SDS011;2507;50.392;7.482;2022-12-18T01:24:37;34.83;;;19.70;;
4980;SDS011;2507;50.392;7.482;2022-12-18T01:27:02;38.87;;;20.10;;
4980;SDS011;2507;50.392;7.482;2022-12-18T01:29:27;38.90;;;20.53;;
4980;SDS011;2507;50.392;7.482;2022-12-18T01:31:54;36.00;;;19.50;;
4980;SDS011;2507;50.392;7.482;2022-12-18T01:34:21;42.13;;;21.00;;
4980;SDS011;2507;50.392;7.482;2022-12-18T01:36:47;37.13;;;19.20;;
4980;SDS011;2507;50.392;7.482;2022-12-18T01:39:13;38.40;;;20.40;;
4980;SDS011;2507;50.392;7.482;2022-12-18T01:41:39;34.60;;;18.77;;
4980;SDS011;2507;50.392;7.482;2022-12-18T01:47:19;32.10;;;16.63;;
4980;SDS011;2507;50.392;7.482;2022-12-18T01:49:48;43.23;;;19.43;;
4980;SDS011;2507;50.392;7.482;2022-12-18T01:52:14;32.83;;;19.30;;
4980;SDS011;2507;50.392;7.482;2022-12-18T01:54:41;29.27;;;16.20;;
4980;SDS011;2507;50.392;7.482;2022-12-18T01:57:07;31.03;;;17.87;;
4980;SDS011;2507;50.392;7.482;2022-12-18T01:59:32;30.37;;;17.20;;
4980;SDS011;2507;50.392;7.482;2022-12-18T02:02:00;32.27;;;17.50;;
4980;SDS011;2507;50.392;7.482;2022-12-18T02:04:27;30.30;;;17.57;;
4980;SDS011;2507;50.392;7.482;2022-12-18T02:07:01;24.00;;;15.27;;
4980;SDS011;2507;50.392;7.482;2022-12-18T02:09:46;29.43;;;15.80;;
4980;SDS011;2507;50.392;7.482;2022-12-18T02:12:19;27.03;;;15.90;;
4980;SDS011;2507;50.392;7.482;2022-12-18T02:23:06;60.63;;;17.70;;
4980;SDS011;2507;50.392;7.482;2022-12-18T02:28:59;65.37;;;17.50;;
4980;SDS011;2507;50.392;7.482;2022-12-18T02:31:30;29.47;;;17.93;;
4980;SDS011;2507;50.392;7.482;2022-12-18T02:34:02;61.30;;;18.50;;
4980;SDS011;2507;50.392;7.482;2022-12-18T02:36:31;40.47;;;17.77;;
4980;SDS011;2507;50.392;7.482;2022-12-18T02:38:58;30.50;;;17.57;;
4980;SDS011;2507;50.392;7.482;2022-12-18T02:41:26;52.53;;;18.87;;
4980;SDS011;2507;50.392;7.482;2022-12-18T02:43:53;28.07;;;17.00;;
4980;SDS011;2507;50.392;7.482;2022-12-18T02:46:31;31.03;;;17.83;;
4980;SDS011;2507;50.392;7.482;2022-12-18T02:49:15;101.03;;;18.43;;
4980;SDS011;2507;50.392;7.482;2022-12-18T02:52:05;256.33;;;24.70;;
4980;SDS011;2507;50.392;7.482;2022-12-18T02:54:46;390.03;;;28.83;;
4980;SDS011;2507;50.392;7.482;2022-12-18T02:57:40;327.03;;;24.53;;
4980;SDS011;2507;50.392;7.482;2022-12-18T03:03:50;36.80;;;16.47;;
4980;SDS011;2507;50.392;7.482;2022-12-18T03:06:24;132.20;;;19.27;;
4980;SDS011;2507;50.392;7.482;2022-12-18T03:08:54;53.50;;;18.00;;
4980;SDS011;2507;50.392;7.482;2022-12-18T03:11:24;29.97;;;16.20;;
4980;SDS011;2507;50.392;7.482;2022-12-18T03:14:10;41.23;;;17.40;;
4980;SDS011;2507;50.392;7.482;2022-12-18T03:16:40;42.63;;;17.67;;
4980;SDS011;2507;50.392;7.482;2022-12-18T03:19:08;50.83;;;19.20;;
4980;SDS011;2507;50.392;7.482;2022-12-18T03:21:45;26.50;;;17.60;;
4980;SDS011;2507;50.392;7.482;2022-12-18T03:24:13;31.03;;;18.40;;
4980;SDS011;2507;50.392;7.482;2022-12-18T03:26:41;31.10;;;18.20;;
4980;SDS011;2507;50.392;7.482;2022-12-18T03:29:12;43.30;;;18.13;;
4980;SDS011;2507;50.392;7.482;2022-12-18T03:31:45;73.57;;;18.17;;
4980;SDS011;2507;50.392;7.482;2022-12-18T03:34:17;176.83;;;19.97;;
4980;SDS011;2507;50.392;7.482;2022-12-18T03:36:48;44.23;;;18.47;;
4980;SDS011;2507;50.392;7.482;2022-12-18T03:39:13;130.77;;;21.47;;
4980;SDS011;2507;50.392;7.482;2022-12-18T03:41:51;191.53;;;20.27;;
4980;SDS011;2507;50.392;7.482;2022-12-18T03:44:28;25.30;;;16.47;;
4980;SDS011;2507;50.392;7.482;2022-12-18T03:52:53;85.00;;;17.17;;
4980;SDS011;2507;50.392;7.482;2022-12-18T03:55:25;23.37;;;15.60;;
4980;SDS011;2507;50.392;7.482;2022-12-18T03:57:56;54.17;;;16.43;;
4980;SDS011;2507;50.392;7.482;2022-12-18T04:00:23;36.23;;;17.00;;
4980;SDS011;2507;50.392;7.482;2022-12-18T04:02:50;22.70;;;15.63;;
4980;SDS011;2507;50.392;7.482;2022-12-18T04:05:18;29.70;;;15.80;;
4980;SDS011;2507;50.392;7.482;2022-12-18T04:07:45;62.70;;;17.17;;
4980;SDS011;2507;50.392;7.482;2022-12-18T04:10:12;45.03;;;16.77;;
4980;SDS011;2507;50.392;7.482;2022-12-18T04:12:41;37.97;;;15.87;;
4980;SDS011;2507;50.392;7.482;2022-12-18T04:15:08;25.13;;;15.30;;
4980;SDS011;2507;50.392;7.482;2022-12-18T04:17:34;34.90;;;15.13;;
4980;SDS011;2507;50.392;7.482;2022-12-18T04:19:59;32.83;;;15.83;;
4980;SDS011;2507;50.392;7.482;2022-12-18T04:22:25;36.97;;;14.97;;
4980;SDS011;2507;50.392;7.482;2022-12-18T04:24:51;45.50;;;15.00;;
4980;SDS011;2507;50.392;7.482;2022-12-18T04:27:17;36.20;;;15.40;;
4980;SDS011;2507;50.392;7.482;2022-12-18T04:29:42;37.27;;;13.30;;
4980;SDS011;2507;50.392;7.482;2022-12-18T04:32:08;34.67;;;12.37;;
4980;SDS011;2507;50.392;7.482;2022-12-18T04:34:33;20.87;;;14.00;;
4980;SDS011;2507;50.392;7.482;2022-12-18T04:36:58;30.90;;;14.87;;
4980;SDS011;2507;50.392;7.482;2022-12-18T04:39:24;27.43;;;15.37;;
4980;SDS011;2507;50.392;7.482;2022-12-18T04:41:49;59.27;;;14.77;;
4980;SDS011;2507;50.392;7.482;2022-12-18T04:44:14;40.43;;;14.50;;
4980;SDS011;2507;50.392;7.482;2022-12-18T04:46:40;24.17;;;13.43;;
4980;SDS011;2507;50.392;7.482;2022-12-18T04:49:05;24.40;;;13.90;;
4980;SDS011;2507;50.392;7.482;2022-12-18T04:51:30;21.40;;;13.43;;
4980;SDS011;2507;50.392;7.482;2022-12-18T04:53:56;20.43;;;12.93;;
4980;SDS011;2507;50.392;7.482;2022-12-18T04:56:21;64.90;;;16.03;;
4980;SDS011;2507;50.392;7.482;2022-12-18T04:58:47;22.40;;;13.67;;
4980;SDS011;2507;50.392;7.482;2022-12-18T05:01:13;41.53;;;14.77;;
4980;SDS011;2507;50.392;7.482;2022-12-18T05:03:39;35.90;;;13.47;;
4980;SDS011;2507;50.392;7.482;2022-12-18T05:06:05;16.37;;;11.43;;
4980;SDS011;2507;50.392;7.482;2022-12-18T05:08:31;22.73;;;13.60;;
4980;SDS011;2507;50.392;7.482;2022-12-18T05:10:58;56.40;;;12.57;;
4980;SDS011;2507;50.392;7.482;2022-12-18T05:13:24;20.63;;;12.80;;
4980;SDS011;2507;50.392;7.482;2022-12-18T05:15:52;17.90;;;11.90;;
4980;SDS011;2507;50.392;7.482;2022-12-18T05:18:18;16.00;;;10.33;;
4980;SDS011;2507;50.392;7.482;2022-12-18T05:20:43;32.13;;;15.23;;
4980;SDS011;2507;50.392;7.482;2022-12-18T05:23:08;21.17;;;13.80;;
4980;SDS011;2507;50.392;7.482;2022-12-18T05:25:34;20.10;;;12.77;;
4980;SDS011;2507;50.392;7.482;2022-12-18T05:27:59;18.57;;;12.43;;
4980;SDS011;2507;50.392;7.482;2022-12-18T05:30:24;19.90;;;13.43;;
4980;SDS011;2507;50.392;7.482;2022-12-18T05:32:50;16.63;;;11.63;;
4980;SDS011;2507;50.392;7.482;2022-12-18T05:35:15;18.67;;;12.63;;
4980;SDS011;2507;50.392;7.482;2022-12-18T05:37:40;21.93;;;13.30;;
4980;SDS011;2507;50.392;7.482;2022-12-18T05:40:06;20.23;;;13.17;;
4980;SDS011;2507;50.392;7.482;2022-12-18T05:42:31;28.20;;;12.90;;
4980;SDS011;2507;50.392;7.482;2022-12-18T05:44:57;22.60;;;14.20;;
4980;SDS011;2507;50.392;7.482;2022-12-18T05:47:22;22.20;;;13.60;;
4980;SDS011;2507;50.392;7.482;2022-12-18T05:49:47;20.80;;;13.30;;
4980;SDS011;2507;50.392;7.482;2022-12-18T05:52:13;18.20;;;12.13;;
4980;SDS011;2507;50.392;7.482;2022-12-18T05:54:38;68.77;;;15.10;;
4980;SDS011;2507;50.392;7.482;2022-12-18T05:57:04;29.03;;;15.73;;
4980;SDS011;2507;50.392;7.482;2022-12-18T05:59:29;200.30;;;18.83;;
4980;SDS011;2507;50.392;7.482;2022-12-18T06:01:55;25.90;;;13.23;;
4980;SDS011;2507;50.392;7.482;2022-12-18T06:04:20;31.27;;;12.57;;
4980;SDS011;2507;50.392;7.482;2022-12-18T06:06:45;122.07;;;16.80;;
4980;SDS011;2507;50.392;7.482;2022-12-18T06:09:10;19.13;;;12.03;;
4980;SDS011;2507;50.392;7.482;2022-12-18T06:11:36;28.60;;;11.90;;
4980;SDS011;2507;50.392;7.482;2022-12-18T06:14:03;36.37;;;11.57;;
4980;SDS011;2507;50.392;7.482;2022-12-18T06:16:29;17.33;;;11.67;;
4980;SDS011;2507;50.392;7.482;2022-12-18T06:18:56;33.53;;;14.40;;
4980;SDS011;2507;50.392;7.482;2022-12-18T06:21:25;22.70;;;13.60;;
4980;SDS011;2507;50.392;7.482;2022-12-18T06:23:51;21.20;;;13.60;;
4980;SDS011;2507;50.392;7.482;2022-12-18T06:26:16;23.23;;;13.30;;
4980;SDS011;2507;50.392;7.482;2022-12-18T06:28:42;18.67;;;12.43;;
4980;SDS011;2507;50.392;7.482;2022-12-18T06:31:07;18.33;;;11.60;;
4980;SDS011;2507;50.392;7.482;2022-12-18T06:33:34;19.60;;;11.83;;
4980;SDS011;2507;50.392;7.482;2022-12-18T06:36:07;35.10;;;13.30;;
4980;SDS011;2507;50.392;7.482;2022-12-18T06:38:36;20.63;;;13.40;;
4980;SDS011;2507;50.392;7.482;2022-12-18T06:41:06;27.70;;;13.27;;
4980;SDS011;2507;50.392;7.482;2022-12-18T06:43:36;16.20;;;12.07;;
4980;SDS011;2507;50.392;7.482;2022-12-18T06:46:02;59.23;;;14.63;;
4980;SDS011;2507;50.392;7.482;2022-12-18T06:48:29;106.43;;;14.07;;
4980;SDS011;2507;50.392;7.482;2022-12-18T06:50:54;101.97;;;15.03;;
4980;SDS011;2507;50.392;7.482;2022-12-18T06:53:20;123.77;;;14.33;;
4980;SDS011;2507;50.392;7.482;2022-12-18T06:55:45;153.50;;;15.50;;
4980;SDS011;2507;50.392;7.482;2022-12-18T06:58:10;17.40;;;11.43;;
4980;SDS011;2507;50.392;7.482;2022-12-18T07:00:35;124.10;;;15.37;;
4980;SDS011;2507;50.392;7.482;2022-12-18T07:03:01;115.43;;;16.67;;
4980;SDS011;2507;50.392;7.482;2022-12-18T07:05:26;21.40;;;11.87;;
4980;SDS011;2507;50.392;7.482;2022-12-18T07:07:51;34.43;;;12.50;;
4980;SDS011;2507;50.392;7.482;2022-12-18T07:10:17;26.33;;;14.33;;
4980;SDS011;2507;50.392;7.482;2022-12-18T07:12:42;20.60;;;13.90;;
4980;SDS011;2507;50.392;7.482;2022-12-18T07:15:08;22.27;;;14.20;;
4980;SDS011;2507;50.392;7.482;2022-12-18T07:17:33;19.57;;;12.80;;
4980;SDS011;2507;50.392;7.482;2022-12-18T07:19:58;20.13;;;12.97;;
4980;SDS011;2507;50.392;7.482;2022-12-18T07:22:24;21.20;;;13.30;;
4980;SDS011;2507;50.392;7.482;2022-12-18T07:24:50;25.10;;;14.70;;
4980;SDS011;2507;50.392;7.482;2022-12-18T07:27:15;26.80;;;15.67;;
4980;SDS011;2507;50.392;7.482;2022-12-18T07:29:41;27.33;;;16.07;;
4980;SDS011;2507;50.392;7.482;2022-12-18T07:32:06;86.70;;;17.77;;
4980;SDS011;2507;50.392;7.482;2022-12-18T07:34:32;85.13;;;16.60;;
4980;SDS011;2507;50.392;7.482;2022-12-18T07:36:57;114.77;;;19.60;;
4980;SDS011;2507;50.392;7.482;2022-12-18T07:39:23;35.13;;;16.40;;
4980;SDS011;2507;50.392;7.482;2022-12-18T07:41:48;55.47;;;22.77;;
4980;SDS011;2507;50.392;7.482;2022-12-18T07:44:33;123.00;;;25.57;;
4980;SDS011;2507;50.392;7.482;2022-12-18T07:46:58;128.73;;;22.73;;
4980;SDS011;2507;50.392;7.482;2022-12-18T07:49:24;27.33;;;16.43;;
4980;SDS011;2507;50.392;7.482;2022-12-18T07:51:49;30.70;;;18.27;;
4980;SDS011;2507;50.392;7.482;2022-12-18T07:54:14;25.07;;;17.13;;
4980;SDS011;2507;50.392;7.482;2022-12-18T07:56:40;42.47;;;19.90;;
4980;SDS011;2507;50.392;7.482;2022-12-18T07:59:05;25.40;;;16.37;;
4980;SDS011;2507;50.392;7.482;2022-12-18T08:01:30;36.97;;;18.43;;
4980;SDS011;2507;50.392;7.482;2022-12-18T08:03:56;29.27;;;17.13;;
4980;SDS011;2507;50.392;7.482;2022-12-18T08:06:22;116.70;;;23.47;;
4980;SDS011;2507;50.392;7.482;2022-12-18T08:08:48;129.40;;;20.80;;
4980;SDS011;2507;50.392;7.482;2022-12-18T08:11:13;208.93;;;20.43;;
4980;SDS011;2507;50.392;7.482;2022-12-18T08:13:38;39.70;;;18.60;;
4980;SDS011;2507;50.392;7.482;2022-12-18T08:16:05;130.80;;;21.40;;
4980;SDS011;2507;50.392;7.482;2022-12-18T08:21:08;37.20;;;17.47;;
4980;SDS011;2507;50.392;7.482;2022-12-18T08:23:34;38.33;;;17.37;;
4980;SDS011;2507;50.392;7.482;2022-12-18T08:26:00;30.47;;;18.10;;
4980;SDS011;2507;50.392;7.482;2022-12-18T08:28:25;29.53;;;16.97;;
4980;SDS011;2507;50.392;7.482;2022-12-18T08:30:51;26.00;;;16.60;;
4980;SDS011;2507;50.392;7.482;2022-12-18T08:33:17;27.00;;;16.07;;
4980;SDS011;2507;50.392;7.482;2022-12-18T08:35:42;25.40;;;16.10;;
4980;SDS011;2507;50.392;7.482;2022-12-18T08:38:07;26.87;;;15.67;;
4980;SDS011;2507;50.392;7.482;2022-12-18T08:40:32;22.40;;;15.23;;
4980;SDS011;2507;50.392;7.482;2022-12-18T08:42:58;22.90;;;15.03;;
4980;SDS011;2507;50.392;7.482;2022-12-18T08:45:42;32.30;;;18.00;;
4980;SDS011;2507;50.392;7.482;2022-12-18T08:48:07;40.23;;;15.07;;
4980;SDS011;2507;50.392;7.482;2022-12-18T08:50:32;30.77;;;16.97;;
4980;SDS011;2507;50.392;7.482;2022-12-18T08:52:58;24.20;;;16.77;;
4980;SDS011;2507;50.392;7.482;2022-12-18T08:55:23;24.80;;;16.37;;
4980;SDS011;2507;50.392;7.482;2022-12-18T08:57:48;25.77;;;16.53;;
4980;SDS011;2507;50.392;7.482;2022-12-18T09:00:14;22.70;;;15.20;;
4980;SDS011;2507;50.392;7.482;2022-12-18T09:02:40;22.57;;;14.20;;
4980;SDS011;2507;50.392;7.482;2022-12-18T09:05:05;22.43;;;14.60;;
4980;SDS011;2507;50.392;7.482;2022-12-18T09:07:31;22.90;;;15.67;;
4980;SDS011;2507;50.392;7.482;2022-12-18T09:09:56;23.77;;;15.20;;
4980;SDS011;2507;50.392;7.482;2022-12-18T09:12:21;22.80;;;15.23;;
4980;SDS011;2507;50.392;7.482;2022-12-18T09:14:46;22.80;;;15.10;;
4980;SDS011;2507;50.392;7.482;2022-12-18T09:17:12;26.70;;;17.20;;
4980;SDS011;2507;50.392;7.482;2022-12-18T09:19:37;25.80;;;16.50;;
4980;SDS011;2507;50.392;7.482;2022-12-18T09:22:02;27.53;;;16.70;;
4980;SDS011;2507;50.392;7.482;2022-12-18T09:24:27;22.77;;;16.40;;
4980;SDS011;2507;50.392;7.482;2022-12-18T09:26:53;24.97;;;16.20;;
4980;SDS011;2507;50.392;7.482;2022-12-18T09:29:20;27.70;;;18.20;;
4980;SDS011;2507;50.392;7.482;2022-12-18T09:31:45;27.43;;;18.23;;
4980;SDS011;2507;50.392;7.482;2022-12-18T09:34:12;27.93;;;18.80;;
4980;SDS011;2507;50.392;7.482;2022-12-18T09:36:38;24.87;;;16.33;;
4980;SDS011;2507;50.392;7.482;2022-12-18T09:39:04;28.07;;;17.87;;
4980;SDS011;2507;50.392;7.482;2022-12-18T09:41:40;26.63;;;16.10;;
4980;SDS011;2507;50.392;7.482;2022-12-18T09:46:52;26.47;;;16.60;;
4980;SDS011;2507;50.392;7.482;2022-12-18T09:49:23;30.17;;;18.27;;
4980;SDS011;2507;50.392;7.482;2022-12-18T09:51:54;25.37;;;16.07;;
4980;SDS011;2507;50.392;7.482;2022-12-18T09:54:38;26.43;;;15.93;;
4980;SDS011;2507;50.392;7.482;2022-12-18T09:57:04;28.00;;;16.10;;
4980;SDS011;2507;50.392;7.482;2022-12-18T10:02:19;26.63;;;16.90;;
4980;SDS011;2507;50.392;7.482;2022-12-18T10:16:03;24.17;;;17.70;;
4980;SDS011;2507;50.392;7.482;2022-12-18T10:18:40;23.93;;;16.20;;
4980;SDS011;2507;50.392;7.482;2022-12-18T10:21:19;26.30;;;16.17;;
4980;SDS011;2507;50.392;7.482;2022-12-18T10:23:52;28.10;;;18.17;;
4980;SDS011;2507;50.392;7.482;2022-12-18T10:26:23;29.37;;;18.27;;
4980;SDS011;2507;50.392;7.482;2022-12-18T10:28:49;28.77;;;18.83;;
4980;SDS011;2507;50.392;7.482;2022-12-18T10:31:17;26.40;;;17.60;;
4980;SDS011;2507;50.392;7.482;2022-12-18T10:33:44;29.43;;;19.23;;
4980;SDS011;2507;50.392;7.482;2022-12-18T10:36:10;30.70;;;18.70;;
4980;SDS011;2507;50.392;7.482;2022-12-18T10:38:36;31.80;;;19.20;;
4980;SDS011;2507;50.392;7.482;2022-12-18T10:41:06;26.27;;;18.57;;
4980;SDS011;2507;50.392;7.482;2022-12-18T10:43:45;29.97;;;18.07;;
4980;SDS011;2507;50.392;7.482;2022-12-18T10:46:12;32.27;;;21.03;;
4980;SDS011;2507;50.392;7.482;2022-12-18T10:48:48;32.27;;;20.73;;
4980;SDS011;2507;50.392;7.482;2022-12-18T10:51:25;29.50;;;19.00;;
4980;SDS011;2507;50.392;7.482;2022-12-18T10:53:57;32.43;;;21.63;;
4980;SDS011;2507;50.392;7.482;2022-12-18T10:56:26;29.17;;;19.73;;
4980;SDS011;2507;50.392;7.482;2022-12-18T10:58:57;33.97;;;21.77;;
4980;SDS011;2507;50.392;7.482;2022-12-18T11:01:24;31.13;;;21.77;;
4980;SDS011;2507;50.392;7.482;2022-12-18T11:06:16;33.70;;;22.47;;
4980;SDS011;2507;50.392;7.482;2022-12-18T11:08:44;38.53;;;22.53;;
4980;SDS011;2507;50.392;7.482;2022-12-18T11:11:22;31.57;;;20.27;;
4980;SDS011;2507;50.392;7.482;2022-12-18T11:13:55;30.30;;;19.70;;
4980;SDS011;2507;50.392;7.482;2022-12-18T11:16:31;34.37;;;21.07;;
4980;SDS011;2507;50.392;7.482;2022-12-18T11:19:17;31.83;;;20.13;;
4980;SDS011;2507;50.392;7.482;2022-12-18T11:21:47;32.00;;;21.00;;
4980;SDS011;2507;50.392;7.482;2022-12-18T11:24:20;30.90;;;20.00;;
4980;SDS011;2507;50.392;7.482;2022-12-18T11:27:00;31.30;;;20.10;;
4980;SDS011;2507;50.392;7.482;2022-12-18T11:29:32;35.73;;;22.10;;
4980;SDS011;2507;50.392;7.482;2022-12-18T11:35:11;36.23;;;21.40;;
4980;SDS011;2507;50.392;7.482;2022-12-18T11:37:43;34.83;;;22.90;;
4980;SDS011;2507;50.392;7.482;2022-12-18T11:40:15;36.07;;;23.10;;
4980;SDS011;2507;50.392;7.482;2022-12-18T11:42:45;36.13;;;22.87;;
4980;SDS011;2507;50.392;7.482;2022-12-18T11:45:30;33.87;;;24.10;;
4980;SDS011;2507;50.392;7.482;2022-12-18T11:48:18;39.57;;;24.80;;
4980;SDS011;2507;50.392;7.482;2022-12-18T11:50:53;36.03;;;23.97;;
4980;SDS011;2507;50.392;7.482;2022-12-18T11:53:21;47.80;;;29.80;;
4980;SDS011;2507;50.392;7.482;2022-12-18T11:55:56;54.93;;;34.67;;
4980;SDS011;2507;50.392;7.482;2022-12-18T12:01:29;38.43;;;22.67;;
4980;SDS011;2507;50.392;7.482;2022-12-18T12:07:00;32.60;;;22.90;;
4980;SDS011;2507;50.392;7.482;2022-12-18T12:14:59;41.67;;;27.90;;
4980;SDS011;2507;50.392;7.482;2022-12-18T12:17:41;38.00;;;26.00;;
4980;SDS011;2507;50.392;7.482;2022-12-18T12:20:21;42.03;;;28.90;;
4980;SDS011;2507;50.392;7.482;2022-12-18T12:28:45;41.30;;;27.63;;
4980;SDS011;2507;50.392;7.482;2022-12-18T12:39:32;35.87;;;25.57;;
4980;SDS011;2507;50.392;7.482;2022-12-18T12:42:03;37.57;;;24.33;;
4980;SDS011;2507;50.392;7.482;2022-12-18T12:44:54;36.60;;;22.80;;
4980;SDS011;2507;50.392;7.482;2022-12-18T12:47:37;34.60;;;23.57;;
4980;SDS011;2507;50.392;7.482;2022-12-18T12:50:06;34.87;;;23.20;;
4980;SDS011;2507;50.392;7.482;2022-12-18T12:52:40;34.80;;;22.83;;
4980;SDS011;2507;50.392;7.482;2022-12-18T12:55:13;36.80;;;24.33;;
4980;SDS011;2507;50.392;7.482;2022-12-18T12:57:48;35.33;;;24.10;;
4980;SDS011;2507;50.392;7.482;2022-12-18T13:00:22;37.27;;;24.37;;
4980;SDS011;2507;50.392;7.482;2022-12-18T13:08:27;35.80;;;24.23;;
4980;SDS011;2507;50.392;7.482;2022-12-18T13:10:54;34.70;;;23.93;;
4980;SDS011;2507;50.392;7.482;2022-12-18T13:16:18;37.60;;;24.43;;
4980;SDS011;2507;50.392;7.482;2022-12-18T13:18:48;38.80;;;24.50;;
4980;SDS011;2507;50.392;7.482;2022-12-18T13:21:29;37.27;;;26.83;;
4980;SDS011;2507;50.392;7.482;2022-12-18T13:23:56;37.30;;;25.93;;
4980;SDS011;2507;50.392;7.482;2022-12-18T13:26:38;36.13;;;24.93;;
4980;SDS011;2507;50.392;7.482;2022-12-18T13:29:04;36.50;;;24.20;;
4980;SDS011;2507;50.392;7.482;2022-12-18T13:36:42;32.90;;;22.30;;
4980;SDS011;2507;50.392;7.482;2022-12-18T13:41:39;34.23;;;21.20;;
4980;SDS011;2507;50.392;7.482;2022-12-18T13:46:53;33.40;;;21.50;;
4980;SDS011;2507;50.392;7.482;2022-12-18T13:49:24;31.90;;;22.67;;
4980;SDS011;2507;50.392;7.482;2022-12-18T13:51:55;30.27;;;21.57;;
4980;SDS011;2507;50.392;7.482;2022-12-18T13:54:24;35.87;;;22.10;;
4980;SDS011;2507;50.392;7.482;2022-12-18T13:56:54;29.30;;;20.47;;
4980;SDS011;2507;50.392;7.482;2022-12-18T13:59:32;30.00;;;20.87;;
4980;SDS011;2507;50.392;7.482;2022-12-18T14:02:00;33.60;;;22.23;;
4980;SDS011;2507;50.392;7.482;2022-12-18T14:04:37;31.83;;;23.17;;
4980;SDS011;2507;50.392;7.482;2022-12-18T14:09:29;33.00;;;22.70;;
4980;SDS011;2507;50.392;7.482;2022-12-18T14:11:56;34.33;;;22.37;;
4980;SDS011;2507;50.392;7.482;2022-12-18T14:14:46;30.57;;;22.50;;
4980;SDS011;2507;50.392;7.482;2022-12-18T14:17:15;32.47;;;21.87;;
4980;SDS011;2507;50.392;7.482;2022-12-18T14:19:45;32.37;;;21.80;;
4980;SDS011;2507;50.392;7.482;2022-12-18T14:22:14;31.97;;;21.13;;
4980;SDS011;2507;50.392;7.482;2022-12-18T14:24:45;37.93;;;24.50;;
4980;SDS011;2507;50.392;7.482;2022-12-18T14:27:22;38.30;;;24.50;;
4980;SDS011;2507;50.392;7.482;2022-12-18T14:29:49;34.33;;;23.90;;
4980;SDS011;2507;50.392;7.482;2022-12-18T14:32:19;36.40;;;23.50;;
4980;SDS011;2507;50.392;7.482;2022-12-18T14:34:46;34.93;;;23.43;;
4980;SDS011;2507;50.392;7.482;2022-12-18T14:37:17;35.07;;;23.07;;
4980;SDS011;2507;50.392;7.482;2022-12-18T14:39:53;35.23;;;23.37;;
4980;SDS011;2507;50.392;7.482;2022-12-18T14:42:23;32.53;;;21.30;;
4980;SDS011;2507;50.392;7.482;2022-12-18T14:44:53;33.20;;;22.53;;
4980;SDS011;2507;50.392;7.482;2022-12-18T14:47:56;36.70;;;23.23;;
4980;SDS011;2507;50.392;7.482;2022-12-18T14:50:22;38.97;;;23.47;;
4980;SDS011;2507;50.392;7.482;2022-12-18T14:52:48;33.30;;;23.87;;
4980;SDS011;2507;50.392;7.482;2022-12-18T14:55:14;33.87;;;21.83;;
4980;SDS011;2507;50.392;7.482;2022-12-18T14:57:41;33.80;;;23.07;;
4980;SDS011;2507;50.392;7.482;2022-12-18T15:00:15;32.90;;;22.27;;
4980;SDS011;2507;50.392;7.482;2022-12-18T15:02:43;35.30;;;23.33;;
4980;SDS011;2507;50.392;7.482;2022-12-18T15:05:24;31.73;;;21.53;;
4980;SDS011;2507;50.392;7.482;2022-12-18T15:07:53;32.50;;;21.73;;
4980;SDS011;2507;50.392;7.482;2022-12-18T15:25:55;35.50;;;23.47;;
4980;SDS011;2507;50.392;7.482;2022-12-18T15:28:26;36.70;;;23.20;;
4980;SDS011;2507;50.392;7.482;2022-12-18T15:33:29;36.90;;;22.87;;
4980;SDS011;2507;50.392;7.482;2022-12-18T15:35:58;36.10;;;24.17;;
4980;SDS011;2507;50.392;7.482;2022-12-18T15:38:24;38.43;;;24.33;;
4980;SDS011;2507;50.392;7.482;2022-12-18T15:40:50;39.23;;;24.63;;
4980;SDS011;2507;50.392;7.482;2022-12-18T15:43:15;38.00;;;24.20;;
4980;SDS011;2507;50.392;7.482;2022-12-18T15:46:19;33.67;;;22.50;;
4980;SDS011;2507;50.392;7.482;2022-12-18T15:48:55;37.03;;;22.83;;
4980;SDS011;2507;50.392;7.482;2022-12-18T15:51:35;39.30;;;24.90;;
4980;SDS011;2507;50.392;7.482;2022-12-18T15:54:02;39.40;;;24.50;;
4980;SDS011;2507;50.392;7.482;2022-12-18T15:56:29;35.50;;;24.00;;
4980;SDS011;2507;50.392;7.482;2022-12-18T15:59:14;35.70;;;23.43;;
4980;SDS011;2507;50.392;7.482;2022-12-18T16:01:41;36.07;;;23.87;;
4980;SDS011;2507;50.392;7.482;2022-12-18T16:04:10;38.87;;;24.60;;
4980;SDS011;2507;50.392;7.482;2022-12-18T16:06:37;34.70;;;22.60;;
4980;SDS011;2507;50.392;7.482;2022-12-18T16:09:02;35.27;;;23.37;;
4980;SDS011;2507;50.392;7.482;2022-12-18T16:11:28;37.50;;;24.03;;
4980;SDS011;2507;50.392;7.482;2022-12-18T16:14:21;37.83;;;25.27;;
4980;SDS011;2507;50.392;7.482;2022-12-18T16:16:47;40.73;;;25.70;;
4980;SDS011;2507;50.392;7.482;2022-12-18T16:19:15;39.37;;;25.03;;
4980;SDS011;2507;50.392;7.482;2022-12-18T16:21:41;41.07;;;25.87;;
4980;SDS011;2507;50.392;7.482;2022-12-18T16:24:09;40.73;;;26.70;;
4980;SDS011;2507;50.392;7.482;2022-12-18T16:26:39;39.90;;;24.90;;
4980;SDS011;2507;50.392;7.482;2022-12-18T16:29:06;40.80;;;26.20;;
4980;SDS011;2507;50.392;7.482;2022-12-18T16:31:32;39.20;;;25.00;;
4980;SDS011;2507;50.392;7.482;2022-12-18T16:36:57;41.87;;;25.57;;
4980;SDS011;2507;50.392;7.482;2022-12-18T16:39:23;38.93;;;25.73;;
4980;SDS011;2507;50.392;7.482;2022-12-18T16:41:49;43.73;;;26.67;;
4980;SDS011;2507;50.392;7.482;2022-12-18T16:44:15;38.37;;;25.40;;
4980;SDS011;2507;50.392;7.482;2022-12-18T16:46:40;37.70;;;23.17;;
4980;SDS011;2507;50.392;7.482;2022-12-18T16:49:08;46.27;;;26.57;;
4980;SDS011;2507;50.392;7.482;2022-12-18T16:51:35;44.60;;;26.63;;
4980;SDS011;2507;50.392;7.482;2022-12-18T16:54:00;38.57;;;24.80;;
4980;SDS011;2507;50.392;7.482;2022-12-18T16:56:25;41.30;;;26.57;;